Andover, Kansas
Current Conditions -  °F | °C
As of 11:54 AM on Friday 24 Oct 2014 (Local Time) from KAAO Reporting Station
Clear Clear  
Wind Chill: 21°   Ceiling: Unl
Heat Index: 21°   Visibility: 10mi
Dew Point: 16°   Wind: 10mph
Humidity: 73%   Direction: 180°S
Pressure: 30.06"   Gusts: NA
Location:  37.71°N, 97.14°W
Report Text: KAAO 241654Z AUTO 18009KT 10SM CLR 21/16 A3006 RMK AO2 SLP175 T02060156 $
Loading
Personal Weather Stations






























Interactive Weather Map
Tropical Storm Tracking
New forecast layout! Learn more

10-Day Weather Forecast

Advertisements
Track Severe Weather on mobile